Time;durP1;ratioP1;P1;durP2;ratioP2;P2;SDS_P1;SDS_P2;PMS_P1;PMS_P2;Temp;Humidity;BMP_temperature;BMP_pressure;BME280_temperature;BME280_humidity;BME280_pressure;Samples;Min_cycle;Max_cycle;Signal;HPM_P1;HPM_P2
2023/10/21 00:02:23;;;;;;;4.33;2.43;;;;;;;;;;4995139;28;20194;-82
2023/10/21 00:04:49;;;;;;;0.90;0.90;;;;;;;;;;4995072;28;20196;-82
2023/10/21 00:07:15;;;;;;;1.50;0.90;;;;;;;;;;5007698;28;20488;-83
2023/10/21 00:09:41;;;;;;;1.20;1.10;;;;;;;;;;4996600;28;20260;-84
2023/10/21 00:12:08;;;;;;;1.07;0.90;;;;;;;;;;5016818;28;20218;-82
2023/10/21 00:14:35;;;;;;;1.37;1.00;;;;;;;;;;4991352;28;20199;-83
2023/10/21 00:17:01;;;;;;;2.00;1.13;;;;;;;;;;4994303;28;20269;-83
2023/10/21 00:19:27;;;;;;;2.33;1.03;;;;;;;;;;4992465;28;20237;-83
2023/10/21 00:21:53;;;;;;;0.87;0.87;;;;;;;;;;5014685;28;20201;-83
2023/10/21 00:24:20;;;;;;;2.80;1.00;;;;;;;;;;4978440;28;20191;-83
2023/10/21 00:26:47;;;;;;;2.60;0.80;;;;;;;;;;5012856;28;20328;-83
2023/10/21 00:29:14;;;;;;;2.10;1.00;;;;;;;;;;5011629;28;20203;-83
2023/10/21 00:31:46;;;;;;;1.10;0.80;;;;;;;;;;4995440;28;20959;-82
2023/10/21 00:34:12;;;;;;;1.00;0.90;;;;;;;;;;4995350;28;20191;-83
2023/10/21 00:36:38;;;;;;;2.77;0.90;;;;;;;;;;4980912;28;20594;-83
2023/10/21 00:39:11;;;;;;;0.97;0.80;;;;;;;;;;5020120;28;20218;-83
2023/10/21 00:41:38;;;;;;;0.93;0.80;;;;;;;;;;5015584;28;20195;-82
2023/10/21 00:44:05;;;;;;;1.53;0.70;;;;;;;;;;4984498;28;20187;-83
2023/10/21 00:46:31;;;;;;;1.53;1.00;;;;;;;;;;5014329;28;20191;-83
2023/10/21 00:48:58;;;;;;;3.23;1.20;;;;;;;;;;4981457;28;20231;-83
2023/10/21 00:51:25;;;;;;;0.80;0.80;;;;;;;;;;4998337;28;20298;-83
2023/10/21 00:53:52;;;;;;;1.53;0.70;;;;;;;;;;4996299;28;20707;-83
2023/10/21 00:56:18;;;;;;;2.40;1.00;;;;;;;;;;5010573;28;20189;-83
2023/10/21 00:58:45;;;;;;;3.37;2.40;;;;;;;;;;5011124;28;20206;-83
2023/10/21 01:01:13;;;;;;;1.77;1.20;;;;;;;;;;4995482;28;20184;-83
2023/10/21 01:03:40;;;;;;;1.27;0.90;;;;;;;;;;4976498;28;20205;-85
2023/10/21 01:06:06;;;;;;;0.90;0.80;;;;;;;;;;5007699;28;20187;-83
2023/10/21 01:08:40;;;;;;;1.33;0.90;;;;;;;;;;5007240;28;20215;-83
2023/10/21 01:11:06;;;;;;;1.10;0.60;;;;;;;;;;4992334;28;20206;-83
2023/10/21 01:13:33;;;;;;;2.50;0.97;;;;;;;;;;4993841;28;20179;-83
2023/10/21 01:15:59;;;;;;;3.23;0.50;;;;;;;;;;5008814;28;20187;-83
2023/10/21 01:18:29;;;;;;;0.80;0.50;;;;;;;;;;4985067;28;20199;-83
2023/10/21 01:20:55;;;;;;;1.57;0.50;;;;;;;;;;4987982;28;20262;-84
2023/10/21 01:23:21;;;;;;;0.93;0.47;;;;;;;;;;5008966;28;20207;-83
2023/10/21 01:25:47;;;;;;;1.37;0.70;;;;;;;;;;4973791;28;20237;-82
2023/10/21 01:28:14;;;;;;;8.00;0.60;;;;;;;;;;5007921;28;20296;-83
2023/10/21 01:30:41;;;;;;;1.77;0.90;;;;;;;;;;4991884;28;20184;-83
2023/10/21 01:33:07;;;;;;;1.23;0.60;;;;;;;;;;5001749;28;20179;-83
2023/10/21 01:35:33;;;;;;;0.57;0.57;;;;;;;;;;5006144;28;20187;-83
2023/10/21 01:37:59;;;;;;;1.90;0.60;;;;;;;;;;4983348;28;20241;-83
2023/10/21 01:40:27;;;;;;;1.47;0.63;;;;;;;;;;4997864;28;20194;-83
2023/10/21 01:42:53;;;;;;;4.27;0.50;;;;;;;;;;4996622;28;20539;-83
2023/10/21 01:45:19;;;;;;;1.70;0.50;;;;;;;;;;4975366;28;20195;-83
2023/10/21 01:47:45;;;;;;;3.40;0.63;;;;;;;;;;4989287;28;20215;-84
2023/10/21 01:50:11;;;;;;;0.50;0.50;;;;;;;;;;4972067;28;20287;-83
2023/10/21 01:52:38;;;;;;;0.97;0.60;;;;;;;;;;4991125;28;20288;-82
2023/10/21 01:55:05;;;;;;;0.80;0.53;;;;;;;;;;4995907;28;20503;-84
2023/10/21 01:57:32;;;;;;;0.43;0.43;;;;;;;;;;5003830;28;20697;-83
2023/10/21 01:59:59;;;;;;;1.33;0.57;;;;;;;;;;4986215;28;20287;-84
2023/10/21 02:02:25;;;;;;;2.90;0.60;;;;;;;;;;5014819;28;20568;-83
2023/10/21 02:04:52;;;;;;;1.57;0.57;;;;;;;;;;4997269;28;20195;-82
2023/10/21 02:07:19;;;;;;;0.60;0.60;;;;;;;;;;5002378;28;20213;-83
2023/10/21 02:09:45;;;;;;;0.40;0.40;;;;;;;;;;5007301;28;20211;-84
2023/10/21 02:12:11;;;;;;;0.40;0.40;;;;;;;;;;4991433;28;20207;-84
2023/10/21 02:14:37;;;;;;;0.47;0.40;;;;;;;;;;4994799;28;20194;-83
2023/10/21 02:17:05;;;;;;;0.87;0.60;;;;;;;;;;5011434;28;20197;-83
2023/10/21 02:19:31;;;;;;;0.57;0.50;;;;;;;;;;4994895;28;20678;-83
2023/10/21 02:21:58;;;;;;;2.23;0.60;;;;;;;;;;4989142;28;20195;-83
2023/10/21 02:24:24;;;;;;;1.73;0.53;;;;;;;;;;4997263;28;20184;-83
2023/10/21 02:26:50;;;;;;;0.53;0.50;;;;;;;;;;5016258;28;20213;-83
2023/10/21 02:29:16;;;;;;;1.10;0.40;;;;;;;;;;5020339;28;20641;-83
2023/10/21 02:31:43;;;;;;;0.40;0.40;;;;;;;;;;5002433;28;20210;-84
2023/10/21 02:34:09;;;;;;;1.53;0.50;;;;;;;;;;4996792;28;20270;-83
2023/10/21 02:36:35;;;;;;;1.00;0.67;;;;;;;;;;4998074;28;20187;-83
2023/10/21 02:39:02;;;;;;;1.47;0.50;;;;;;;;;;4982243;28;20199;-83
2023/10/21 02:41:31;;;;;;;0.70;0.50;;;;;;;;;;5009509;28;20657;-83
2023/10/21 02:43:57;;;;;;;1.30;0.50;;;;;;;;;;4994406;28;20212;-83
2023/10/21 02:46:23;;;;;;;0.53;0.50;;;;;;;;;;4995159;28;20191;-83
2023/10/21 02:48:49;;;;;;;0.50;0.50;;;;;;;;;;5011630;28;20228;-83
2023/10/21 02:51:17;;;;;;;0.60;0.50;;;;;;;;;;5010029;28;20245;-83
2023/10/21 02:53:44;;;;;;;1.03;0.50;;;;;;;;;;4991536;28;20544;-83
2023/10/21 02:56:10;;;;;;;0.60;0.50;;;;;;;;;;4991580;28;20283;-83
2023/10/21 02:58:37;;;;;;;0.50;0.50;;;;;;;;;;4995223;28;20616;-83
2023/10/21 03:01:13;;;;;;;0.53;0.53;;;;;;;;;;4979930;28;20187;-83
2023/10/21 03:03:40;;;;;;;0.57;0.50;;;;;;;;;;4979512;28;20202;-83
2023/10/21 03:06:08;;;;;;;1.53;0.60;;;;;;;;;;4996080;28;20230;-84
2023/10/21 03:08:35;;;;;;;0.60;0.50;;;;;;;;;;4983712;28;20218;-83
2023/10/21 03:11:05;;;;;;;0.77;0.40;;;;;;;;;;5012028;28;20184;-84
2023/10/21 03:13:31;;;;;;;2.23;0.50;;;;;;;;;;5015469;28;20182;-83
2023/10/21 03:15:58;;;;;;;0.83;0.40;;;;;;;;;;5002093;28;20198;-83
2023/10/21 03:18:25;;;;;;;1.17;0.50;;;;;;;;;;5002457;28;20203;-84
2023/10/21 03:20:52;;;;;;;0.80;0.40;;;;;;;;;;5000042;28;20731;-83
2023/10/21 03:23:18;;;;;;;0.67;0.47;;;;;;;;;;5014907;28;20198;-82
2023/10/21 03:25:54;;;;;;;3.90;0.40;;;;;;;;;;5015890;28;20709;-83
2023/10/21 03:28:22;;;;;;;0.57;0.47;;;;;;;;;;5012144;28;20214;-84
2023/10/21 03:30:48;;;;;;;1.30;0.47;;;;;;;;;;4995248;28;20193;-84
2023/10/21 03:33:15;;;;;;;2.97;0.47;;;;;;;;;;5010639;28;20205;-83
2023/10/21 03:35:51;;;;;;;0.40;0.40;;;;;;;;;;4989341;28;20191;-83
2023/10/21 03:38:17;;;;;;;0.80;0.43;;;;;;;;;;4987720;28;20210;-83
2023/10/21 03:40:43;;;;;;;0.40;0.40;;;;;;;;;;4995382;28;20187;-85
2023/10/21 03:43:09;;;;;;;0.57;0.50;;;;;;;;;;4978501;28;20185;-83
2023/10/21 03:45:36;;;;;;;0.97;0.40;;;;;;;;;;4995396;28;20198;-83
2023/10/21 03:48:03;;;;;;;0.50;0.50;;;;;;;;;;4979423;28;20226;-84
2023/10/21 03:50:29;;;;;;;1.50;0.43;;;;;;;;;;4973814;28;20202;-83
2023/10/21 03:52:56;;;;;;;0.50;0.50;;;;;;;;;;4993235;28;20752;-82
2023/10/21 03:55:22;;;;;;;0.73;0.60;;;;;;;;;;4986148;28;20191;-84
2023/10/21 03:57:49;;;;;;;1.23;0.60;;;;;;;;;;4991289;28;20544;-83
2023/10/21 04:00:16;;;;;;;0.80;0.70;;;;;;;;;;4996426;28;20183;-84
2023/10/21 04:02:42;;;;;;;1.87;0.67;;;;;;;;;;4976681;28;20246;-84
2023/10/21 04:05:09;;;;;;;1.30;0.60;;;;;;;;;;5012644;28;20206;-83
2023/10/21 04:07:35;;;;;;;0.50;0.50;;;;;;;;;;5006610;28;20238;-83
2023/10/21 04:10:01;;;;;;;0.60;0.60;;;;;;;;;;4993403;28;20211;-83
2023/10/21 04:12:29;;;;;;;0.70;0.67;;;;;;;;;;5009289;28;20286;-83
2023/10/21 04:14:55;;;;;;;0.60;0.60;;;;;;;;;;4992570;28;20179;-83
2023/10/21 04:17:21;;;;;;;0.80;0.60;;;;;;;;;;5010269;28;20495;-83
2023/10/21 04:19:48;;;;;;;0.77;0.70;;;;;;;;;;5009487;28;20701;-84
2023/10/21 04:22:14;;;;;;;1.40;0.60;;;;;;;;;;4990238;28;20194;-83
2023/10/21 04:24:40;;;;;;;1.37;0.73;;;;;;;;;;5010997;28;20607;-83
2023/10/21 04:27:06;;;;;;;1.27;0.70;;;;;;;;;;5010824;28;20191;-83
2023/10/21 04:29:33;;;;;;;1.57;0.83;;;;;;;;;;4995116;28;20674;-83
2023/10/21 04:31:59;;;;;;;0.73;0.60;;;;;;;;;;5015218;28;20203;-83
2023/10/21 04:34:25;;;;;;;0.70;0.70;;;;;;;;;;5015898;28;20645;-83
2023/10/21 04:36:51;;;;;;;1.23;0.93;;;;;;;;;;4994654;28;20199;-84
2023/10/21 04:39:17;;;;;;;0.70;0.70;;;;;;;;;;4991472;28;20253;-83
2023/10/21 04:41:43;;;;;;;0.87;0.77;;;;;;;;;;5009355;28;20194;-84
2023/10/21 04:44:10;;;;;;;2.10;0.60;;;;;;;;;;4989366;28;20191;-83
2023/10/21 04:46:36;;;;;;;1.10;0.63;;;;;;;;;;4987734;28;20203;-84
2023/10/21 04:49:03;;;;;;;0.60;0.60;;;;;;;;;;5007044;28;20222;-85
2023/10/21 04:51:30;;;;;;;0.63;0.60;;;;;;;;;;4987114;28;20686;-83
2023/10/21 04:53:56;;;;;;;0.87;0.60;;;;;;;;;;5001508;28;20187;-83
2023/10/21 04:56:22;;;;;;;1.30;0.70;;;;;;;;;;5009705;28;20183;-83
2023/10/21 04:58:48;;;;;;;1.60;0.80;;;;;;;;;;5015325;28;20210;-83
2023/10/21 05:01:16;;;;;;;0.70;0.70;;;;;;;;;;5017201;28;20191;-83
2023/10/21 05:03:45;;;;;;;0.97;0.60;;;;;;;;;;5010994;28;20183;-83
2023/10/21 05:06:11;;;;;;;1.30;0.80;;;;;;;;;;5014141;28;20183;-82
2023/10/21 05:08:37;;;;;;;1.47;0.90;;;;;;;;;;4997495;28;20226;-84
2023/10/21 05:11:04;;;;;;;1.20;0.70;;;;;;;;;;4994810;28;20195;-84
2023/10/21 05:13:30;;;;;;;0.60;0.60;;;;;;;;;;4980417;28;20187;-83
2023/10/21 05:15:56;;;;;;;1.40;0.73;;;;;;;;;;5011309;28;20198;-83
2023/10/21 05:18:22;;;;;;;1.80;0.70;;;;;;;;;;4984100;28;20218;-83
2023/10/21 05:20:48;;;;;;;1.03;0.60;;;;;;;;;;4995766;28;20210;-83
2023/10/21 05:23:15;;;;;;;1.47;0.70;;;;;;;;;;4981974;28;20230;-83
2023/10/21 05:25:41;;;;;;;1.57;0.70;;;;;;;;;;4988375;28;20180;-83
2023/10/21 05:28:07;;;;;;;1.33;0.70;;;;;;;;;;4975807;28;20693;-83
2023/10/21 05:30:33;;;;;;;1.10;0.90;;;;;;;;;;4981111;28;20190;-83
2023/10/21 05:32:59;;;;;;;1.73;0.70;;;;;;;;;;5011661;28;20211;-83
2023/10/21 05:35:25;;;;;;;1.27;0.83;;;;;;;;;;4994625;28;20212;-83
2023/10/21 05:37:52;;;;;;;2.00;0.80;;;;;;;;;;5013036;28;20199;-83
2023/10/21 05:40:18;;;;;;;1.40;0.77;;;;;;;;;;5011472;28;20269;-83
2023/10/21 05:42:44;;;;;;;0.80;0.80;;;;;;;;;;5011675;28;20560;-83
2023/10/21 05:45:10;;;;;;;1.00;0.70;;;;;;;;;;4991681;28;20239;-83
2023/10/21 05:47:36;;;;;;;1.53;0.80;;;;;;;;;;4997670;28;20245;-84
2023/10/21 05:50:03;;;;;;;0.90;0.80;;;;;;;;;;5020736;28;20207;-84
2023/10/21 05:52:29;;;;;;;1.43;0.70;;;;;;;;;;5005879;28;20220;-83
2023/10/21 05:54:56;;;;;;;1.23;0.80;;;;;;;;;;5004246;28;20273;-84
2023/10/21 05:57:22;;;;;;;1.30;0.90;;;;;;;;;;5001478;28;20933;-83
2023/10/21 05:59:48;;;;;;;0.80;0.80;;;;;;;;;;5007437;28;20211;-83
2023/10/21 06:02:14;;;;;;;1.77;0.67;;;;;;;;;;5021062;28;20285;-84
2023/10/21 06:04:41;;;;;;;0.93;0.73;;;;;;;;;;4989877;28;20286;-82
2023/10/21 06:07:07;;;;;;;0.83;0.70;;;;;;;;;;4994993;28;20194;-84
2023/10/21 06:09:33;;;;;;;1.03;0.67;;;;;;;;;;4996657;28;20222;-83
2023/10/21 06:12:00;;;;;;;1.00;0.90;;;;;;;;;;4997058;28;20214;-83
2023/10/21 06:14:26;;;;;;;2.47;1.00;;;;;;;;;;5010544;28;20202;-84
2023/10/21 06:16:52;;;;;;;1.30;0.70;;;;;;;;;;4999370;28;20175;-83
2023/10/21 06:19:18;;;;;;;1.33;0.87;;;;;;;;;;4997243;28;20257;-84
2023/10/21 06:21:44;;;;;;;2.67;0.67;;;;;;;;;;4991184;28;20187;-83
2023/10/21 06:24:10;;;;;;;1.17;0.80;;;;;;;;;;4977968;28;20207;-80
2023/10/21 06:26:36;;;;;;;1.93;0.80;;;;;;;;;;4998446;28;20245;-79
2023/10/21 06:29:03;;;;;;;0.70;0.70;;;;;;;;;;4997524;28;20253;-79
2023/10/21 06:31:29;;;;;;;2.00;0.80;;;;;;;;;;5008396;28;20215;-76
2023/10/21 06:33:55;;;;;;;0.70;0.70;;;;;;;;;;5006513;28;20210;-77
2023/10/21 06:36:21;;;;;;;1.43;0.70;;;;;;;;;;5010642;28;20218;-80
2023/10/21 06:38:50;;;;;;;0.93;0.80;;;;;;;;;;4995593;28;20318;-81
2023/10/21 06:41:17;;;;;;;0.87;0.70;;;;;;;;;;5012444;28;20712;-82
2023/10/21 06:43:43;;;;;;;2.70;0.90;;;;;;;;;;5006274;28;20196;-81
2023/10/21 06:46:10;;;;;;;1.00;0.70;;;;;;;;;;5010209;28;20191;-82
2023/10/21 06:48:36;;;;;;;3.23;0.70;;;;;;;;;;5009870;28;20277;-81
2023/10/21 06:51:04;;;;;;;1.60;1.10;;;;;;;;;;5017108;28;20187;-81
2023/10/21 06:53:30;;;;;;;1.70;0.80;;;;;;;;;;5014563;28;20183;-81
2023/10/21 06:55:56;;;;;;;0.80;0.70;;;;;;;;;;5012147;28;20183;-79
2023/10/21 06:58:22;;;;;;;1.00;0.60;;;;;;;;;;5010592;28;20199;-80
2023/10/21 07:00:49;;;;;;;1.07;0.80;;;;;;;;;;4992473;28;20184;-80
2023/10/21 07:03:15;;;;;;;4.80;0.90;;;;;;;;;;5015119;28;20722;-78
2023/10/21 07:05:41;;;;;;;0.67;0.60;;;;;;;;;;5011283;28;20211;-79
2023/10/21 07:08:07;;;;;;;1.13;0.60;;;;;;;;;;5000109;28;20224;-78
2023/10/21 07:10:34;;;;;;;3.73;0.80;;;;;;;;;;5015526;28;20581;-79
2023/10/21 07:13:00;;;;;;;1.53;0.83;;;;;;;;;;4993829;28;20254;-78
2023/10/21 07:15:33;;;;;;;1.63;0.60;;;;;;;;;;5010078;28;20626;-78
2023/10/21 07:18:00;;;;;;;0.93;0.60;;;;;;;;;;5008198;28;20270;-77
2023/10/21 07:20:26;;;;;;;1.27;0.70;;;;;;;;;;5009628;28;20192;-80
2023/10/21 07:22:52;;;;;;;0.60;0.53;;;;;;;;;;5008982;28;20187;-80
2023/10/21 07:25:19;;;;;;;0.77;0.60;;;;;;;;;;5012721;28;20270;-80
2023/10/21 07:27:45;;;;;;;0.63;0.50;;;;;;;;;;5011294;28;20187;-80
2023/10/21 07:30:12;;;;;;;0.60;0.60;;;;;;;;;;5016095;28;20183;-81
2023/10/21 07:32:38;;;;;;;0.43;0.40;;;;;;;;;;5021481;28;20218;-81
2023/10/21 07:35:04;;;;;;;0.53;0.47;;;;;;;;;;5017745;28;20186;-80
2023/10/21 07:37:31;;;;;;;0.60;0.60;;;;;;;;;;5014611;28;20234;-80
2023/10/21 07:40:00;;;;;;;0.60;0.50;;;;;;;;;;5009348;28;20210;-80
2023/10/21 07:42:27;;;;;;;1.10;0.40;;;;;;;;;;4994822;28;20329;-80
2023/10/21 07:44:54;;;;;;;1.43;0.50;;;;;;;;;;5010544;28;20620;-81
2023/10/21 07:47:20;;;;;;;0.40;0.40;;;;;;;;;;4992382;28;20209;-80
2023/10/21 07:49:47;;;;;;;1.47;0.50;;;;;;;;;;5011972;28;20229;-81
2023/10/21 07:52:14;;;;;;;1.00;0.47;;;;;;;;;;4994084;28;20629;-80
2023/10/21 07:54:40;;;;;;;2.03;0.53;;;;;;;;;;5007313;28;20187;-80
2023/10/21 07:57:06;;;;;;;1.93;0.53;;;;;;;;;;5007633;28;20206;-81
2023/10/21 07:59:33;;;;;;;0.87;0.60;;;;;;;;;;4983395;28;20337;-81
2023/10/21 08:02:00;;;;;;;0.60;0.50;;;;;;;;;;4992515;28;20696;-81
2023/10/21 08:04:26;;;;;;;0.50;0.50;;;;;;;;;;5009099;28;20199;-80
2023/10/21 08:06:53;;;;;;;0.87;0.60;;;;;;;;;;5027745;28;20748;-80
2023/10/21 08:09:19;;;;;;;2.37;0.50;;;;;;;;;;4980549;28;20217;-80
2023/10/21 08:11:46;;;;;;;0.93;0.57;;;;;;;;;;4989243;28;20229;-80
2023/10/21 08:14:13;;;;;;;1.50;0.53;;;;;;;;;;5010385;28;20207;-79
2023/10/21 08:16:39;;;;;;;0.57;0.50;;;;;;;;;;5014899;28;20203;-80
2023/10/21 08:19:06;;;;;;;1.70;0.60;;;;;;;;;;5007897;28;20294;-80
2023/10/21 08:21:35;;;;;;;0.83;0.63;;;;;;;;;;5004472;28;20250;-80
2023/10/21 08:24:03;;;;;;;1.00;0.70;;;;;;;;;;5027495;28;20653;-79
2023/10/21 08:26:31;;;;;;;0.60;0.60;;;;;;;;;;5034829;28;20183;-80
2023/10/21 08:28:57;;;;;;;0.67;0.53;;;;;;;;;;5014854;28;20211;-80
2023/10/21 08:31:24;;;;;;;0.97;0.60;;;;;;;;;;5013583;28;21032;-81
2023/10/21 08:33:53;;;;;;;2.60;0.50;;;;;;;;;;5017664;28;20184;-81
2023/10/21 08:36:20;;;;;;;1.33;0.50;;;;;;;;;;5029854;28;20230;-81
2023/10/21 08:38:50;;;;;;;1.53;0.70;;;;;;;;;;5011744;28;20541;-81
2023/10/21 08:41:16;;;;;;;1.37;0.53;;;;;;;;;;5012487;28;20193;-81
2023/10/21 08:43:45;;;;;;;0.50;0.50;;;;;;;;;;4990764;28;20558;-82
2023/10/21 08:46:12;;;;;;;0.93;0.50;;;;;;;;;;5008205;28;20183;-80
2023/10/21 08:48:38;;;;;;;1.63;1.10;;;;;;;;;;5009048;28;20206;-81
2023/10/21 08:51:05;;;;;;;1.23;0.80;;;;;;;;;;5010903;28;20184;-81
2023/10/21 08:53:32;;;;;;;1.17;0.60;;;;;;;;;;5008109;28;20215;-82
2023/10/21 08:55:58;;;;;;;2.83;0.90;;;;;;;;;;5011124;28;20183;-81
2023/10/21 08:58:31;;;;;;;1.17;0.70;;;;;;;;;;5011856;28;20218;-81
2023/10/21 09:00:58;;;;;;;4.77;3.30;;;;;;;;;;5000795;28;20183;-81
2023/10/21 09:03:25;;;;;;;1.37;1.17;;;;;;;;;;5016547;28;20176;-81
2023/10/21 09:06:10;;;;;;;2.67;0.90;;;;;;;;;;4998050;28;20889;-81
2023/10/21 09:08:37;;;;;;;1.47;0.80;;;;;;;;;;5028183;28;20219;-81
2023/10/21 09:11:10;;;;;;;1.40;0.80;;;;;;;;;;5015173;28;20726;-82
2023/10/21 09:13:40;;;;;;;3.87;0.97;;;;;;;;;;4999016;28;20211;-81
2023/10/21 09:16:20;;;;;;;1.10;0.73;;;;;;;;;;5015386;28;20186;-81
2023/10/21 09:18:59;;;;;;;1.40;0.70;;;;;;;;;;5011497;28;20222;-81
2023/10/21 09:21:38;;;;;;;2.37;0.67;;;;;;;;;;5014587;28;20187;-81
2023/10/21 09:24:09;;;;;;;2.20;0.60;;;;;;;;;;5031624;28;20209;-81
2023/10/21 09:26:42;;;;;;;1.17;0.50;;;;;;;;;;4994441;28;20654;-81
2023/10/21 09:29:11;;;;;;;1.10;0.70;;;;;;;;;;5013816;28;20203;-81
2023/10/21 09:31:53;;;;;;;1.70;0.80;;;;;;;;;;5016618;28;20210;-81
2023/10/21 09:34:27;;;;;;;1.97;0.80;;;;;;;;;;5017747;28;20187;-82
2023/10/21 09:36:55;;;;;;;1.50;0.70;;;;;;;;;;5017013;28;20635;-81
2023/10/21 09:39:21;;;;;;;1.93;0.83;;;;;;;;;;5018729;28;20335;-81
2023/10/21 09:41:48;;;;;;;1.63;1.00;;;;;;;;;;5018587;28;20199;-82
2023/10/21 09:44:15;;;;;;;2.93;0.90;;;;;;;;;;5032545;28;20267;-82
2023/10/21 09:46:43;;;;;;;2.10;1.10;;;;;;;;;;5009005;28;20191;-82
2023/10/21 09:49:11;;;;;;;2.03;0.80;;;;;;;;;;5014678;28;20257;-81
2023/10/21 09:51:41;;;;;;;2.03;0.90;;;;;;;;;;5018932;28;20219;-82
2023/10/21 09:54:15;;;;;;;3.23;0.90;;;;;;;;;;5012534;28;20215;-82
2023/10/21 09:56:42;;;;;;;1.40;0.80;;;;;;;;;;5023367;28;20181;-82
2023/10/21 09:59:10;;;;;;;3.13;1.00;;;;;;;;;;5020984;28;20214;-82
2023/10/21 10:01:39;;;;;;;1.10;0.80;;;;;;;;;;5023355;28;20190;-82
2023/10/21 10:04:09;;;;;;;2.60;0.90;;;;;;;;;;5037851;28;20217;-82
2023/10/21 10:06:37;;;;;;;3.07;1.33;;;;;;;;;;5006062;28;20215;-82
2023/10/21 10:09:06;;;;;;;4.37;1.50;;;;;;;;;;5020547;28;20218;-82
2023/10/21 10:11:33;;;;;;;3.27;1.60;;;;;;;;;;5019763;28;20211;-82
2023/10/21 10:14:00;;;;;;;5.60;1.40;;;;;;;;;;5019945;28;20191;-81
2023/10/21 10:16:27;;;;;;;3.33;1.20;;;;;;;;;;5003100;28;20458;-82
2023/10/21 10:18:56;;;;;;;2.60;1.30;;;;;;;;;;5017695;28;20219;-82
2023/10/21 10:21:22;;;;;;;2.47;1.00;;;;;;;;;;5018789;28;20175;-82
2023/10/21 10:23:50;;;;;;;2.20;0.90;;;;;;;;;;5018385;28;20234;-82
2023/10/21 10:26:27;;;;;;;2.33;1.00;;;;;;;;;;5015990;28;20205;-82
2023/10/21 10:28:54;;;;;;;1.53;0.90;;;;;;;;;;5026966;28;20451;-82
2023/10/21 10:31:21;;;;;;;1.20;0.77;;;;;;;;;;5024966;28;20203;-81
2023/10/21 10:33:52;;;;;;;3.47;1.00;;;;;;;;;;5003385;28;20191;-82
2023/10/21 10:36:30;;;;;;;3.63;0.90;;;;;;;;;;5017280;28;20187;-81
2023/10/21 10:38:56;;;;;;;0.90;0.60;;;;;;;;;;5015269;28;20199;-82
2023/10/21 10:41:23;;;;;;;3.43;0.90;;;;;;;;;;5013302;28;20654;-83
2023/10/21 10:43:55;;;;;;;2.77;0.70;;;;;;;;;;5009831;28;20202;-88
2023/10/21 10:46:22;;;;;;;2.13;0.90;;;;;;;;;;5011325;28;20668;-84
2023/10/21 10:48:50;;;;;;;4.17;1.13;;;;;;;;;;5010587;28;20229;-86
2023/10/21 10:51:17;;;;;;;1.63;0.90;;;;;;;;;;4990666;28;20284;-86
2023/10/21 10:53:48;;;;;;;2.53;0.70;;;;;;;;;;5022756;28;20749;-85
2023/10/21 10:56:21;;;;;;;2.33;0.80;;;;;;;;;;4992815;28;20671;-84
2023/10/21 10:58:48;;;;;;;2.57;1.00;;;;;;;;;;4987660;28;20199;-85
2023/10/21 11:01:18;;;;;;;1.93;0.80;;;;;;;;;;4992495;28;20270;-85
2023/10/21 11:03:44;;;;;;;2.00;0.80;;;;;;;;;;4997614;28;20666;-85
2023/10/21 11:06:12;;;;;;;2.80;0.90;;;;;;;;;;5008979;28;20706;-85
2023/10/21 11:08:38;;;;;;;2.60;0.80;;;;;;;;;;4992424;28;20793;-86
2023/10/21 11:11:05;;;;;;;1.43;0.80;;;;;;;;;;5008904;28;20186;-85
2023/10/21 11:13:32;;;;;;;2.47;0.80;;;;;;;;;;5011527;28;20271;-86
2023/10/21 11:15:58;;;;;;;1.37;0.90;;;;;;;;;;5010387;28;20266;-86
2023/10/21 11:18:28;;;;;;;2.57;0.90;;;;;;;;;;5009860;28;20213;-86
2023/10/21 11:20:55;;;;;;;1.57;0.80;;;;;;;;;;5003306;28;20525;-85
2023/10/21 11:23:23;;;;;;;2.10;0.87;;;;;;;;;;5018195;28;20689;-86
2023/10/21 11:25:56;;;;;;;3.50;1.37;;;;;;;;;;5005980;28;20199;-86
2023/10/21 11:28:24;;;;;;;4.17;1.27;;;;;;;;;;5007946;28;20206;-85
2023/10/21 11:30:51;;;;;;;1.90;0.90;;;;;;;;;;5007209;28;20610;-85
2023/10/21 11:33:17;;;;;;;2.90;0.90;;;;;;;;;;4992853;28;20284;-78
2023/10/21 11:35:44;;;;;;;3.20;0.90;;;;;;;;;;5009671;28;20257;-82
2023/10/21 11:38:16;;;;;;;3.80;0.90;;;;;;;;;;5010615;28;20199;-81
2023/10/21 11:40:43;;;;;;;2.10;1.20;;;;;;;;;;5007235;28;20187;-84
2023/10/21 11:43:14;;;;;;;2.10;0.90;;;;;;;;;;5012577;28;20242;-81
2023/10/21 11:45:43;;;;;;;1.53;0.87;;;;;;;;;;5011497;28;20901;-80
2023/10/21 11:48:10;;;;;;;1.80;0.80;;;;;;;;;;5009304;28;20219;-83
2023/10/21 11:50:44;;;;;;;1.50;1.03;;;;;;;;;;5010780;28;20682;-84
2023/10/21 11:53:12;;;;;;;2.77;1.00;;;;;;;;;;4977776;28;20257;-82
2023/10/21 12:31:25;;;;;;;1.93;1.30;;;;;;;;;;4993295;28;20199;-83
2023/10/21 12:36:32;;;;;;;1.43;0.70;;;;;;;;;;5004834;28;20183;-81
2023/10/21 12:41:53;;;;;;;1.53;1.00;;;;;;;;;;5009717;28;20601;-82
2023/10/21 12:44:23;;;;;;;2.90;1.70;;;;;;;;;;5004369;28;20184;-81
2023/10/21 12:46:59;;;;;;;2.13;1.07;;;;;;;;;;5006991;28;20246;-81
2023/10/21 12:49:27;;;;;;;1.70;0.87;;;;;;;;;;4990658;28;20301;-81
2023/10/21 12:51:54;;;;;;;2.07;0.70;;;;;;;;;;5006852;28;20205;-85
2023/10/21 12:54:20;;;;;;;1.73;0.90;;;;;;;;;;4988647;28;20183;-84
2023/10/21 12:56:47;;;;;;;2.00;0.90;;;;;;;;;;5009743;28;20226;-83
2023/10/21 12:59:13;;;;;;;2.70;0.90;;;;;;;;;;5005904;28;20248;-82
2023/10/21 13:01:39;;;;;;;1.80;0.77;;;;;;;;;;4992691;28;20188;-83
2023/10/21 13:04:06;;;;;;;3.97;0.90;;;;;;;;;;5009610;28;20221;-83
2023/10/21 13:06:33;;;;;;;2.60;0.90;;;;;;;;;;4990493;28;20232;-84
2023/10/21 13:09:00;;;;;;;1.73;1.00;;;;;;;;;;5005511;28;20203;-84
2023/10/21 13:11:27;;;;;;;1.67;1.03;;;;;;;;;;5006899;28;20250;-84
2023/10/21 13:13:54;;;;;;;1.67;1.00;;;;;;;;;;4991365;28;20183;-84
2023/10/21 13:16:21;;;;;;;3.70;0.80;;;;;;;;;;5006773;28;20234;-84
2023/10/21 13:18:48;;;;;;;1.97;0.87;;;;;;;;;;5006735;28;20210;-84
2023/10/21 13:21:17;;;;;;;2.40;0.90;;;;;;;;;;5008366;28;20183;-84
2023/10/21 13:23:43;;;;;;;1.30;0.97;;;;;;;;;;5008594;28;20675;-84
2023/10/21 13:26:11;;;;;;;3.43;1.00;;;;;;;;;;5011997;28;20198;-85
2023/10/21 13:28:38;;;;;;;2.13;0.97;;;;;;;;;;5011330;28;20199;-83
2023/10/21 13:31:05;;;;;;;2.63;1.07;;;;;;;;;;5005683;28;20184;-84
2023/10/21 13:33:32;;;;;;;1.70;0.97;;;;;;;;;;4978795;28;20245;-84
2023/10/21 13:35:58;;;;;;;2.83;1.00;;;;;;;;;;4998255;28;20211;-84
2023/10/21 13:38:25;;;;;;;2.70;1.60;;;;;;;;;;4996367;28;20212;-85
2023/10/21 13:40:51;;;;;;;2.00;1.30;;;;;;;;;;5011204;28;20254;-86
2023/10/21 13:43:18;;;;;;;2.43;0.90;;;;;;;;;;4996376;28;20197;-84
2023/10/21 13:45:44;;;;;;;1.97;0.90;;;;;;;;;;4996010;28;20224;-85
2023/10/21 13:48:11;;;;;;;2.30;0.90;;;;;;;;;;4996275;28;20305;-86
2023/10/21 13:50:38;;;;;;;1.77;1.00;;;;;;;;;;5011726;28;20180;-85
2023/10/21 13:53:11;;;;;;;1.80;0.80;;;;;;;;;;4992256;28;20312;-84
2023/10/21 13:55:39;;;;;;;1.30;0.90;;;;;;;;;;5010430;28;20218;-85
2023/10/21 13:58:05;;;;;;;1.40;0.80;;;;;;;;;;5009735;28;20203;-84
2023/10/21 14:00:34;;;;;;;1.67;0.80;;;;;;;;;;5009401;28;20190;-84
2023/10/21 14:03:08;;;;;;;2.27;0.80;;;;;;;;;;5009126;28;20190;-84
2023/10/21 14:05:41;;;;;;;2.23;0.70;;;;;;;;;;4977086;28;20271;-84
2023/10/21 14:08:12;;;;;;;1.90;0.90;;;;;;;;;;5004841;28;20311;-84
2023/10/21 14:10:39;;;;;;;1.37;0.80;;;;;;;;;;5000592;28;20187;-84
2023/10/21 14:13:06;;;;;;;3.83;1.10;;;;;;;;;;4984596;28;20256;-85
2023/10/21 14:15:32;;;;;;;4.00;1.10;;;;;;;;;;4988282;28;20192;-84
2023/10/21 14:18:00;;;;;;;1.90;0.90;;;;;;;;;;5009827;28;20275;-84
2023/10/21 14:20:26;;;;;;;1.70;0.87;;;;;;;;;;5002963;28;20176;-85
2023/10/21 14:22:52;;;;;;;1.40;0.90;;;;;;;;;;4991726;28;20710;-84
2023/10/21 14:25:19;;;;;;;2.00;0.80;;;;;;;;;;4996223;28;20225;-84
2023/10/21 14:27:46;;;;;;;1.23;0.70;;;;;;;;;;4976643;28;20195;-85
2023/10/21 14:30:12;;;;;;;2.27;0.90;;;;;;;;;;5015096;28;20187;-84
2023/10/21 14:32:41;;;;;;;2.17;0.90;;;;;;;;;;4979358;28;20239;-84
2023/10/21 14:35:08;;;;;;;2.20;1.00;;;;;;;;;;5011103;28;20270;-84
2023/10/21 14:37:35;;;;;;;2.30;0.90;;;;;;;;;;4997418;28;20608;-84
2023/10/21 14:40:06;;;;;;;1.47;0.87;;;;;;;;;;5017366;28;20292;-84
2023/10/21 14:42:34;;;;;;;1.07;0.70;;;;;;;;;;5005778;28;20198;-83
2023/10/21 14:45:10;;;;;;;1.43;0.90;;;;;;;;;;4988588;28;20662;-85
2023/10/21 14:47:37;;;;;;;1.50;0.80;;;;;;;;;;5000680;28;20194;-82
2023/10/21 14:50:09;;;;;;;1.93;0.80;;;;;;;;;;4994193;28;20706;-84
2023/10/21 14:52:37;;;;;;;3.50;1.10;;;;;;;;;;5006626;28;20690;-85
2023/10/21 14:55:05;;;;;;;1.57;0.80;;;;;;;;;;5005476;28;20637;-84
2023/10/21 14:57:35;;;;;;;3.33;0.90;;;;;;;;;;5022165;28;20183;-84
2023/10/21 15:00:04;;;;;;;2.13;1.00;;;;;;;;;;5028819;28;20195;-84
2023/10/21 15:02:31;;;;;;;2.80;1.10;;;;;;;;;;4999088;28;20184;-83
2023/10/21 15:04:57;;;;;;;1.57;0.90;;;;;;;;;;5016265;28;20195;-85
2023/10/21 15:07:23;;;;;;;0.80;0.80;;;;;;;;;;4998115;28;20210;-85
2023/10/21 15:09:50;;;;;;;1.73;1.10;;;;;;;;;;4997821;28;20207;-85
2023/10/21 15:12:16;;;;;;;1.73;0.90;;;;;;;;;;5000078;28;20234;-83
2023/10/21 15:14:42;;;;;;;1.43;0.80;;;;;;;;;;4979755;28;20194;-84
2023/10/21 15:17:08;;;;;;;2.50;1.00;;;;;;;;;;4999878;28;20191;-85
2023/10/21 15:19:35;;;;;;;1.23;0.80;;;;;;;;;;5012450;28;20551;-81
2023/10/21 15:22:02;;;;;;;1.90;0.77;;;;;;;;;;5012574;28;20247;-84
2023/10/21 15:24:28;;;;;;;1.30;0.90;;;;;;;;;;5013771;28;20230;-84
2023/10/21 15:26:54;;;;;;;2.87;1.10;;;;;;;;;;4991677;28;20187;-85